Greenwood Lake (4N1)
West Milford, NJ
Field Elevation: 791
Lat: 41°07.70N  Long: 74°20.79W
CTAF/Unicom Freq: 122.9000
   
    
Weather Advisories
2022-01-19   17:09 Z
Altimeter 29.96" Hg
Wind 230° @ 10 KT
Gusts 15 KT
Visibility 10 SM
Ceiling OVC130
Temperature 3° C (37° F)
Dewpoint -6° C (21° F)
Relative Humidity 54%
Density Altitude --
Condensation Altitude 5,000 feet
Wind Chill: -1° C (30° F)
Wind and Runways
Indicated Runway = 24
Headwind = 10 kt
Crosswind = 2 kt
History
 
 
 
More Info
NOAA Forecast
 
 
About Us
Belfort Instrument
 
 
FAA Disclaimer: The data displayed is for advisory purposes only and is not to be used for flight planning or operations. For official data, please call (not available) to hear the current automated AWOS voice message.
  METAR 4N1 191709Z AUTO 23010G15KT 10 SM OVC130 03/M06 A2996